sensor_id;sensor_type;location;lat;lon;timestamp;P1;durP1;ratioP1;P2;durP2;ratioP2
59434;SDS011;45241;49.768;8.636;2023-04-20T00:01:50;4.63;;;3.20;;
59434;SDS011;45241;49.768;8.636;2023-04-20T00:04:16;4.63;;;2.90;;
59434;SDS011;45241;49.768;8.636;2023-04-20T00:06:42;4.97;;;3.53;;
59434;SDS011;45241;49.768;8.636;2023-04-20T00:09:08;5.57;;;2.75;;
59434;SDS011;45241;49.768;8.636;2023-04-20T00:11:34;7.57;;;3.28;;
59434;SDS011;45241;49.768;8.636;2023-04-20T00:14:00;3.85;;;2.85;;
59434;SDS011;45241;49.768;8.636;2023-04-20T00:16:25;5.72;;;2.88;;
59434;SDS011;45241;49.768;8.636;2023-04-20T00:18:51;4.18;;;2.75;;
59434;SDS011;45241;49.768;8.636;2023-04-20T00:21:16;5.07;;;2.85;;
59434;SDS011;45241;49.768;8.636;2023-04-20T00:23:42;5.25;;;3.33;;
59434;SDS011;45241;49.768;8.636;2023-04-20T00:26:07;4.47;;;2.85;;
59434;SDS011;45241;49.768;8.636;2023-04-20T00:28:32;4.90;;;2.88;;
59434;SDS011;45241;49.768;8.636;2023-04-20T00:30:58;4.95;;;2.72;;
59434;SDS011;45241;49.768;8.636;2023-04-20T00:33:23;5.65;;;3.13;;
59434;SDS011;45241;49.768;8.636;2023-04-20T00:35:48;6.35;;;3.30;;
59434;SDS011;45241;49.768;8.636;2023-04-20T00:38:14;5.35;;;3.10;;
59434;SDS011;45241;49.768;8.636;2023-04-20T00:40:41;4.60;;;3.15;;
59434;SDS011;45241;49.768;8.636;2023-04-20T00:43:10;4.28;;;2.90;;
59434;SDS011;45241;49.768;8.636;2023-04-20T00:45:37;6.00;;;2.95;;
59434;SDS011;45241;49.768;8.636;2023-04-20T00:48:03;4.95;;;2.90;;
59434;SDS011;45241;49.768;8.636;2023-04-20T00:50:28;4.95;;;3.10;;
59434;SDS011;45241;49.768;8.636;2023-04-20T00:52:54;6.72;;;3.20;;
59434;SDS011;45241;49.768;8.636;2023-04-20T00:55:20;5.95;;;3.40;;
59434;SDS011;45241;49.768;8.636;2023-04-20T00:57:46;5.47;;;3.10;;
59434;SDS011;45241;49.768;8.636;2023-04-20T01:00:12;5.05;;;3.13;;
59434;SDS011;45241;49.768;8.636;2023-04-20T01:02:37;4.70;;;2.95;;
59434;SDS011;45241;49.768;8.636;2023-04-20T01:05:03;6.43;;;2.90;;
59434;SDS011;45241;49.768;8.636;2023-04-20T01:07:28;5.53;;;3.03;;
59434;SDS011;45241;49.768;8.636;2023-04-20T01:09:54;5.60;;;3.10;;
59434;SDS011;45241;49.768;8.636;2023-04-20T01:12:20;4.85;;;3.00;;
59434;SDS011;45241;49.768;8.636;2023-04-20T01:14:45;6.03;;;3.30;;
59434;SDS011;45241;49.768;8.636;2023-04-20T01:17:10;5.60;;;3.20;;
59434;SDS011;45241;49.768;8.636;2023-04-20T01:19:39;4.22;;;3.10;;
59434;SDS011;45241;49.768;8.636;2023-04-20T01:22:04;5.70;;;3.05;;
59434;SDS011;45241;49.768;8.636;2023-04-20T01:24:31;5.88;;;3.13;;
59434;SDS011;45241;49.768;8.636;2023-04-20T01:26:57;5.50;;;3.15;;
59434;SDS011;45241;49.768;8.636;2023-04-20T01:29:22;4.80;;;2.80;;
59434;SDS011;45241;49.768;8.636;2023-04-20T01:31:47;4.38;;;2.88;;
59434;SDS011;45241;49.768;8.636;2023-04-20T01:34:13;4.13;;;2.97;;
59434;SDS011;45241;49.768;8.636;2023-04-20T01:36:39;3.92;;;2.72;;
59434;SDS011;45241;49.768;8.636;2023-04-20T01:39:04;3.42;;;2.83;;
59434;SDS011;45241;49.768;8.636;2023-04-20T01:41:30;5.40;;;3.20;;
59434;SDS011;45241;49.768;8.636;2023-04-20T01:43:55;6.05;;;2.85;;
59434;SDS011;45241;49.768;8.636;2023-04-20T01:46:20;5.55;;;3.10;;
59434;SDS011;45241;49.768;8.636;2023-04-20T01:48:45;6.07;;;2.92;;
59434;SDS011;45241;49.768;8.636;2023-04-20T01:51:11;5.22;;;3.25;;
59434;SDS011;45241;49.768;8.636;2023-04-20T01:53:36;6.95;;;3.58;;
59434;SDS011;45241;49.768;8.636;2023-04-20T01:56:01;8.95;;;3.83;;
59434;SDS011;45241;49.768;8.636;2023-04-20T01:58:27;4.68;;;3.65;;
59434;SDS011;45241;49.768;8.636;2023-04-20T02:00:52;5.47;;;3.70;;
59434;SDS011;45241;49.768;8.636;2023-04-20T02:03:18;6.28;;;3.47;;
59434;SDS011;45241;49.768;8.636;2023-04-20T02:05:43;7.25;;;3.50;;
59434;SDS011;45241;49.768;8.636;2023-04-20T02:08:08;6.60;;;3.42;;
59434;SDS011;45241;49.768;8.636;2023-04-20T02:10:34;5.07;;;3.35;;
59434;SDS011;45241;49.768;8.636;2023-04-20T02:12:59;4.55;;;3.47;;
59434;SDS011;45241;49.768;8.636;2023-04-20T02:15:25;5.53;;;3.40;;
59434;SDS011;45241;49.768;8.636;2023-04-20T02:17:50;4.22;;;3.35;;
59434;SDS011;45241;49.768;8.636;2023-04-20T02:20:16;4.80;;;3.50;;
59434;SDS011;45241;49.768;8.636;2023-04-20T02:22:43;8.43;;;3.60;;
59434;SDS011;45241;49.768;8.636;2023-04-20T02:25:09;8.63;;;3.63;;
59434;SDS011;45241;49.768;8.636;2023-04-20T02:27:34;4.97;;;3.58;;
59434;SDS011;45241;49.768;8.636;2023-04-20T02:30:00;7.43;;;3.33;;
59434;SDS011;45241;49.768;8.636;2023-04-20T02:32:25;5.50;;;3.75;;
59434;SDS011;45241;49.768;8.636;2023-04-20T02:34:51;6.85;;;3.47;;
59434;SDS011;45241;49.768;8.636;2023-04-20T02:37:16;5.53;;;3.58;;
59434;SDS011;45241;49.768;8.636;2023-04-20T02:39:42;5.82;;;3.30;;
59434;SDS011;45241;49.768;8.636;2023-04-20T02:42:07;7.18;;;3.45;;
59434;SDS011;45241;49.768;8.636;2023-04-20T02:44:32;9.77;;;3.45;;
59434;SDS011;45241;49.768;8.636;2023-04-20T02:46:58;4.97;;;3.38;;
59434;SDS011;45241;49.768;8.636;2023-04-20T02:49:23;4.82;;;3.03;;
59434;SDS011;45241;49.768;8.636;2023-04-20T02:51:48;5.65;;;3.38;;
59434;SDS011;45241;49.768;8.636;2023-04-20T02:54:14;8.05;;;3.22;;
59434;SDS011;45241;49.768;8.636;2023-04-20T02:56:40;6.28;;;3.22;;
59434;SDS011;45241;49.768;8.636;2023-04-20T02:59:05;5.13;;;3.25;;
59434;SDS011;45241;49.768;8.636;2023-04-20T03:01:30;6.15;;;3.38;;
59434;SDS011;45241;49.768;8.636;2023-04-20T03:03:56;5.13;;;3.20;;
59434;SDS011;45241;49.768;8.636;2023-04-20T03:06:21;9.20;;;3.72;;
59434;SDS011;45241;49.768;8.636;2023-04-20T03:08:46;6.93;;;3.97;;
59434;SDS011;45241;49.768;8.636;2023-04-20T03:11:12;6.80;;;3.17;;
59434;SDS011;45241;49.768;8.636;2023-04-20T03:13:37;8.52;;;3.75;;
59434;SDS011;45241;49.768;8.636;2023-04-20T03:16:02;6.03;;;3.13;;
59434;SDS011;45241;49.768;8.636;2023-04-20T03:18:29;5.60;;;3.30;;
59434;SDS011;45241;49.768;8.636;2023-04-20T03:20:55;5.43;;;3.17;;
59434;SDS011;45241;49.768;8.636;2023-04-20T03:23:20;7.28;;;3.30;;
59434;SDS011;45241;49.768;8.636;2023-04-20T03:25:46;5.50;;;3.38;;
59434;SDS011;45241;49.768;8.636;2023-04-20T03:28:11;7.70;;;3.20;;
59434;SDS011;45241;49.768;8.636;2023-04-20T03:30:37;7.45;;;3.13;;
59434;SDS011;45241;49.768;8.636;2023-04-20T03:33:02;7.78;;;3.33;;
59434;SDS011;45241;49.768;8.636;2023-04-20T03:35:28;5.35;;;3.80;;
59434;SDS011;45241;49.768;8.636;2023-04-20T03:37:53;5.43;;;3.58;;
59434;SDS011;45241;49.768;8.636;2023-04-20T03:40:18;6.93;;;4.25;;
59434;SDS011;45241;49.768;8.636;2023-04-20T03:42:44;4.93;;;3.75;;
59434;SDS011;45241;49.768;8.636;2023-04-20T03:45:09;5.00;;;3.72;;
59434;SDS011;45241;49.768;8.636;2023-04-20T03:47:35;9.43;;;3.78;;
59434;SDS011;45241;49.768;8.636;2023-04-20T03:50:00;5.15;;;3.67;;
59434;SDS011;45241;49.768;8.636;2023-04-20T03:52:26;6.78;;;3.97;;
59434;SDS011;45241;49.768;8.636;2023-04-20T03:54:51;6.65;;;3.78;;
59434;SDS011;45241;49.768;8.636;2023-04-20T03:57:16;6.03;;;4.10;;
59434;SDS011;45241;49.768;8.636;2023-04-20T03:59:42;7.93;;;3.70;;
59434;SDS011;45241;49.768;8.636;2023-04-20T04:02:07;8.38;;;3.60;;
59434;SDS011;45241;49.768;8.636;2023-04-20T04:04:34;4.53;;;3.40;;
59434;SDS011;45241;49.768;8.636;2023-04-20T04:07:00;4.45;;;3.70;;
59434;SDS011;45241;49.768;8.636;2023-04-20T04:09:25;6.60;;;3.72;;
59434;SDS011;45241;49.768;8.636;2023-04-20T04:11:51;9.00;;;3.90;;
59434;SDS011;45241;49.768;8.636;2023-04-20T04:14:16;6.80;;;4.10;;
59434;SDS011;45241;49.768;8.636;2023-04-20T04:16:41;6.70;;;3.70;;
59434;SDS011;45241;49.768;8.636;2023-04-20T04:19:07;5.78;;;3.92;;
59434;SDS011;45241;49.768;8.636;2023-04-20T04:21:32;5.97;;;4.20;;
59434;SDS011;45241;49.768;8.636;2023-04-20T04:23:58;6.30;;;4.18;;
59434;SDS011;45241;49.768;8.636;2023-04-20T04:26:23;7.20;;;3.97;;
59434;SDS011;45241;49.768;8.636;2023-04-20T04:28:49;9.95;;;4.68;;
59434;SDS011;45241;49.768;8.636;2023-04-20T04:31:15;11.55;;;4.20;;
59434;SDS011;45241;49.768;8.636;2023-04-20T04:33:45;10.07;;;4.22;;
59434;SDS011;45241;49.768;8.636;2023-04-20T04:36:11;8.25;;;3.85;;
59434;SDS011;45241;49.768;8.636;2023-04-20T04:38:39;8.18;;;4.03;;
59434;SDS011;45241;49.768;8.636;2023-04-20T04:41:06;5.65;;;3.95;;
59434;SDS011;45241;49.768;8.636;2023-04-20T04:43:31;9.02;;;4.03;;
59434;SDS011;45241;49.768;8.636;2023-04-20T04:45:57;7.57;;;4.30;;
59434;SDS011;45241;49.768;8.636;2023-04-20T04:48:23;4.95;;;3.65;;
59434;SDS011;45241;49.768;8.636;2023-04-20T04:50:48;7.95;;;4.18;;
59434;SDS011;45241;49.768;8.636;2023-04-20T04:53:14;5.93;;;3.85;;
59434;SDS011;45241;49.768;8.636;2023-04-20T04:55:39;5.68;;;4.10;;
59434;SDS011;45241;49.768;8.636;2023-04-20T04:58:05;9.40;;;4.72;;
59434;SDS011;45241;49.768;8.636;2023-04-20T05:00:30;9.73;;;4.10;;
59434;SDS011;45241;49.768;8.636;2023-04-20T05:02:56;8.95;;;4.22;;
59434;SDS011;45241;49.768;8.636;2023-04-20T05:05:21;8.15;;;4.15;;
59434;SDS011;45241;49.768;8.636;2023-04-20T05:07:47;7.78;;;4.40;;
59434;SDS011;45241;49.768;8.636;2023-04-20T05:10:12;8.20;;;4.30;;
59434;SDS011;45241;49.768;8.636;2023-04-20T05:12:38;7.20;;;4.10;;
59434;SDS011;45241;49.768;8.636;2023-04-20T05:15:04;10.10;;;4.30;;
59434;SDS011;45241;49.768;8.636;2023-04-20T05:17:30;8.15;;;4.90;;
59434;SDS011;45241;49.768;8.636;2023-04-20T05:19:55;9.02;;;4.97;;
59434;SDS011;45241;49.768;8.636;2023-04-20T05:22:21;8.75;;;4.93;;
59434;SDS011;45241;49.768;8.636;2023-04-20T05:24:46;6.93;;;4.47;;
59434;SDS011;45241;49.768;8.636;2023-04-20T05:27:11;7.78;;;4.55;;
59434;SDS011;45241;49.768;8.636;2023-04-20T05:29:37;7.72;;;4.57;;
59434;SDS011;45241;49.768;8.636;2023-04-20T05:32:03;8.68;;;4.57;;
59434;SDS011;45241;49.768;8.636;2023-04-20T05:34:28;7.93;;;4.90;;
59434;SDS011;45241;49.768;8.636;2023-04-20T05:36:54;7.60;;;4.32;;
59434;SDS011;45241;49.768;8.636;2023-04-20T05:39:20;8.20;;;5.00;;
59434;SDS011;45241;49.768;8.636;2023-04-20T05:41:46;7.72;;;4.90;;
59434;SDS011;45241;49.768;8.636;2023-04-20T05:44:11;9.43;;;4.88;;
59434;SDS011;45241;49.768;8.636;2023-04-20T05:46:37;6.18;;;4.50;;
59434;SDS011;45241;49.768;8.636;2023-04-20T05:49:02;7.47;;;5.00;;
59434;SDS011;45241;49.768;8.636;2023-04-20T05:51:27;8.02;;;5.28;;
59434;SDS011;45241;49.768;8.636;2023-04-20T05:53:57;6.63;;;4.97;;
59434;SDS011;45241;49.768;8.636;2023-04-20T05:56:22;7.53;;;5.00;;
59434;SDS011;45241;49.768;8.636;2023-04-20T05:58:48;9.68;;;5.18;;
59434;SDS011;45241;49.768;8.636;2023-04-20T06:01:13;7.55;;;4.63;;
59434;SDS011;45241;49.768;8.636;2023-04-20T06:03:39;7.40;;;5.10;;
59434;SDS011;45241;49.768;8.636;2023-04-20T06:06:04;7.60;;;5.00;;
59434;SDS011;45241;49.768;8.636;2023-04-20T06:08:30;8.82;;;4.57;;
59434;SDS011;45241;49.768;8.636;2023-04-20T06:10:56;7.28;;;4.80;;
59434;SDS011;45241;49.768;8.636;2023-04-20T06:13:22;12.27;;;4.60;;
59434;SDS011;45241;49.768;8.636;2023-04-20T06:15:47;7.93;;;4.80;;
59434;SDS011;45241;49.768;8.636;2023-04-20T06:18:13;8.05;;;4.72;;
59434;SDS011;45241;49.768;8.636;2023-04-20T06:20:38;7.00;;;4.22;;
59434;SDS011;45241;49.768;8.636;2023-04-20T06:23:04;6.80;;;4.28;;
59434;SDS011;45241;49.768;8.636;2023-04-20T06:25:29;11.35;;;4.80;;
59434;SDS011;45241;49.768;8.636;2023-04-20T06:27:55;7.07;;;4.55;;
59434;SDS011;45241;49.768;8.636;2023-04-20T06:30:20;6.55;;;4.47;;
59434;SDS011;45241;49.768;8.636;2023-04-20T06:32:46;8.98;;;4.90;;
59434;SDS011;45241;49.768;8.636;2023-04-20T06:35:11;6.95;;;4.60;;
59434;SDS011;45241;49.768;8.636;2023-04-20T06:37:36;7.88;;;4.85;;
59434;SDS011;45241;49.768;8.636;2023-04-20T06:40:03;9.57;;;5.10;;
59434;SDS011;45241;49.768;8.636;2023-04-20T06:42:32;8.73;;;4.82;;
59434;SDS011;45241;49.768;8.636;2023-04-20T06:44:57;7.90;;;4.40;;
59434;SDS011;45241;49.768;8.636;2023-04-20T06:47:22;9.73;;;5.07;;
59434;SDS011;45241;49.768;8.636;2023-04-20T06:49:55;8.35;;;4.72;;
59434;SDS011;45241;49.768;8.636;2023-04-20T06:52:20;8.88;;;5.05;;
59434;SDS011;45241;49.768;8.636;2023-04-20T06:54:46;6.82;;;4.65;;
59434;SDS011;45241;49.768;8.636;2023-04-20T06:57:11;9.60;;;4.65;;
59434;SDS011;45241;49.768;8.636;2023-04-20T06:59:36;8.95;;;4.70;;
59434;SDS011;45241;49.768;8.636;2023-04-20T07:02:01;8.50;;;4.30;;
59434;SDS011;45241;49.768;8.636;2023-04-20T07:04:27;7.45;;;4.78;;
59434;SDS011;45241;49.768;8.636;2023-04-20T07:06:52;10.02;;;4.70;;
59434;SDS011;45241;49.768;8.636;2023-04-20T07:09:17;6.97;;;4.38;;
59434;SDS011;45241;49.768;8.636;2023-04-20T07:11:43;8.02;;;4.72;;
59434;SDS011;45241;49.768;8.636;2023-04-20T07:14:08;7.20;;;4.78;;
59434;SDS011;45241;49.768;8.636;2023-04-20T07:16:34;7.30;;;4.80;;
59434;SDS011;45241;49.768;8.636;2023-04-20T07:18:59;5.93;;;4.20;;
59434;SDS011;45241;49.768;8.636;2023-04-20T07:21:24;7.82;;;4.70;;
59434;SDS011;45241;49.768;8.636;2023-04-20T07:23:51;9.68;;;4.63;;
59434;SDS011;45241;49.768;8.636;2023-04-20T07:26:16;6.88;;;4.78;;
59434;SDS011;45241;49.768;8.636;2023-04-20T07:28:41;7.05;;;4.38;;
59434;SDS011;45241;49.768;8.636;2023-04-20T07:31:07;8.70;;;4.90;;
59434;SDS011;45241;49.768;8.636;2023-04-20T07:33:32;6.43;;;4.55;;
59434;SDS011;45241;49.768;8.636;2023-04-20T07:35:59;7.43;;;4.35;;
59434;SDS011;45241;49.768;8.636;2023-04-20T07:38:24;6.75;;;4.90;;
59434;SDS011;45241;49.768;8.636;2023-04-20T07:40:50;5.85;;;4.43;;
59434;SDS011;45241;49.768;8.636;2023-04-20T07:43:15;7.60;;;4.82;;
59434;SDS011;45241;49.768;8.636;2023-04-20T07:45:40;7.88;;;4.68;;
59434;SDS011;45241;49.768;8.636;2023-04-20T07:48:06;5.85;;;4.25;;
59434;SDS011;45241;49.768;8.636;2023-04-20T07:50:33;7.75;;;4.75;;
59434;SDS011;45241;49.768;8.636;2023-04-20T07:52:59;7.78;;;4.80;;
59434;SDS011;45241;49.768;8.636;2023-04-20T07:55:24;6.15;;;4.60;;
59434;SDS011;45241;49.768;8.636;2023-04-20T07:57:50;8.38;;;4.97;;
59434;SDS011;45241;49.768;8.636;2023-04-20T08:00:15;7.72;;;4.75;;
59434;SDS011;45241;49.768;8.636;2023-04-20T08:02:41;8.52;;;5.30;;
59434;SDS011;45241;49.768;8.636;2023-04-20T08:05:07;9.18;;;4.72;;
59434;SDS011;45241;49.768;8.636;2023-04-20T08:07:34;6.63;;;4.70;;
59434;SDS011;45241;49.768;8.636;2023-04-20T08:10:00;7.13;;;4.85;;
59434;SDS011;45241;49.768;8.636;2023-04-20T08:12:26;7.72;;;4.82;;
59434;SDS011;45241;49.768;8.636;2023-04-20T08:14:52;7.20;;;4.65;;
59434;SDS011;45241;49.768;8.636;2023-04-20T08:17:17;7.30;;;4.50;;
59434;SDS011;45241;49.768;8.636;2023-04-20T08:19:43;6.72;;;4.80;;
59434;SDS011;45241;49.768;8.636;2023-04-20T08:22:08;8.07;;;4.47;;
59434;SDS011;45241;49.768;8.636;2023-04-20T08:24:36;8.38;;;4.90;;
59434;SDS011;45241;49.768;8.636;2023-04-20T08:27:02;7.95;;;4.80;;
59434;SDS011;45241;49.768;8.636;2023-04-20T08:29:28;9.55;;;4.95;;
59434;SDS011;45241;49.768;8.636;2023-04-20T08:31:53;12.45;;;4.88;;
59434;SDS011;45241;49.768;8.636;2023-04-20T08:34:18;8.68;;;4.93;;
59434;SDS011;45241;49.768;8.636;2023-04-20T08:36:43;6.95;;;4.63;;
59434;SDS011;45241;49.768;8.636;2023-04-20T08:39:10;8.80;;;4.97;;
59434;SDS011;45241;49.768;8.636;2023-04-20T08:41:39;10.85;;;4.90;;
59434;SDS011;45241;49.768;8.636;2023-04-20T08:44:05;7.40;;;4.30;;
59434;SDS011;45241;49.768;8.636;2023-04-20T08:46:32;8.23;;;4.90;;
59434;SDS011;45241;49.768;8.636;2023-04-20T08:48:58;6.47;;;4.75;;
59434;SDS011;45241;49.768;8.636;2023-04-20T08:51:25;5.60;;;4.68;;
59434;SDS011;45241;49.768;8.636;2023-04-20T08:53:51;6.72;;;4.70;;
59434;SDS011;45241;49.768;8.636;2023-04-20T08:56:17;8.55;;;4.82;;
59434;SDS011;45241;49.768;8.636;2023-04-20T08:58:42;5.97;;;4.72;;
59434;SDS011;45241;49.768;8.636;2023-04-20T09:01:08;7.70;;;4.65;;
59434;SDS011;45241;49.768;8.636;2023-04-20T09:03:35;9.25;;;5.32;;
59434;SDS011;45241;49.768;8.636;2023-04-20T09:06:12;6.25;;;4.80;;
59434;SDS011;45241;49.768;8.636;2023-04-20T09:08:40;6.45;;;4.50;;
59434;SDS011;45241;49.768;8.636;2023-04-20T09:11:18;8.63;;;5.22;;
59434;SDS011;45241;49.768;8.636;2023-04-20T09:14:00;7.07;;;5.32;;
59434;SDS011;45241;49.768;8.636;2023-04-20T09:16:31;7.53;;;5.40;;
59434;SDS011;45241;49.768;8.636;2023-04-20T09:18:58;6.93;;;4.78;;
59434;SDS011;45241;49.768;8.636;2023-04-20T09:21:24;7.82;;;5.10;;
59434;SDS011;45241;49.768;8.636;2023-04-20T09:23:58;6.68;;;4.78;;
59434;SDS011;45241;49.768;8.636;2023-04-20T09:26:24;6.15;;;4.70;;
59434;SDS011;45241;49.768;8.636;2023-04-20T09:28:50;7.32;;;5.30;;
59434;SDS011;45241;49.768;8.636;2023-04-20T09:31:21;7.82;;;5.20;;
59434;SDS011;45241;49.768;8.636;2023-04-20T09:34:05;8.75;;;5.22;;
59434;SDS011;45241;49.768;8.636;2023-04-20T09:36:35;11.30;;;5.10;;
59434;SDS011;45241;49.768;8.636;2023-04-20T09:39:02;8.05;;;5.43;;
59434;SDS011;45241;49.768;8.636;2023-04-20T09:41:35;6.18;;;4.63;;
59434;SDS011;45241;49.768;8.636;2023-04-20T09:44:01;6.38;;;4.68;;
59434;SDS011;45241;49.768;8.636;2023-04-20T09:46:28;5.22;;;4.32;;
59434;SDS011;45241;49.768;8.636;2023-04-20T09:49:02;5.97;;;4.63;;
59434;SDS011;45241;49.768;8.636;2023-04-20T09:51:32;6.18;;;4.25;;
59434;SDS011;45241;49.768;8.636;2023-04-20T09:53:59;7.43;;;4.68;;
59434;SDS011;45241;49.768;8.636;2023-04-20T09:56:26;5.10;;;3.97;;
59434;SDS011;45241;49.768;8.636;2023-04-20T09:58:52;5.97;;;4.20;;
59434;SDS011;45241;49.768;8.636;2023-04-20T10:01:19;7.63;;;4.43;;
59434;SDS011;45241;49.768;8.636;2023-04-20T10:03:48;5.30;;;3.97;;
59434;SDS011;45241;49.768;8.636;2023-04-20T10:06:24;7.97;;;4.18;;
59434;SDS011;45241;49.768;8.636;2023-04-20T10:13:56;10.07;;;4.55;;
59434;SDS011;45241;49.768;8.636;2023-04-20T10:16:22;7.07;;;4.63;;
59434;SDS011;45241;49.768;8.636;2023-04-20T10:19:02;5.95;;;4.20;;
59434;SDS011;45241;49.768;8.636;2023-04-20T10:21:28;6.15;;;4.07;;
59434;SDS011;45241;49.768;8.636;2023-04-20T10:23:57;7.22;;;4.35;;
59434;SDS011;45241;49.768;8.636;2023-04-20T10:26:34;6.00;;;4.22;;
59434;SDS011;45241;49.768;8.636;2023-04-20T10:29:04;5.47;;;4.20;;
59434;SDS011;45241;49.768;8.636;2023-04-20T10:34:02;4.80;;;3.60;;
59434;SDS011;45241;49.768;8.636;2023-04-20T10:36:28;4.93;;;3.53;;
59434;SDS011;45241;49.768;8.636;2023-04-20T10:38:56;3.50;;;3.00;;
59434;SDS011;45241;49.768;8.636;2023-04-20T10:41:22;5.35;;;3.53;;
59434;SDS011;45241;49.768;8.636;2023-04-20T10:43:47;4.20;;;3.60;;
59434;SDS011;45241;49.768;8.636;2023-04-20T10:48:48;6.03;;;3.42;;
59434;SDS011;45241;49.768;8.636;2023-04-20T10:51:17;7.00;;;3.33;;
59434;SDS011;45241;49.768;8.636;2023-04-20T10:53:43;4.75;;;3.42;;
59434;SDS011;45241;49.768;8.636;2023-04-20T10:56:08;5.35;;;3.50;;
59434;SDS011;45241;49.768;8.636;2023-04-20T10:58:34;5.47;;;3.47;;
59434;SDS011;45241;49.768;8.636;2023-04-20T11:01:01;5.65;;;3.53;;
59434;SDS011;45241;49.768;8.636;2023-04-20T11:03:28;5.78;;;3.35;;
59434;SDS011;45241;49.768;8.636;2023-04-20T11:05:55;4.90;;;3.50;;
59434;SDS011;45241;49.768;8.636;2023-04-20T11:08:34;5.00;;;3.22;;
59434;SDS011;45241;49.768;8.636;2023-04-20T11:11:27;6.82;;;3.38;;
59434;SDS011;45241;49.768;8.636;2023-04-20T11:14:13;4.75;;;3.15;;
59434;SDS011;45241;49.768;8.636;2023-04-20T11:16:37;4.68;;;3.03;;
59434;SDS011;45241;49.768;8.636;2023-04-20T11:19:03;6.18;;;3.30;;
59434;SDS011;45241;49.768;8.636;2023-04-20T11:21:39;4.35;;;3.35;;
59434;SDS011;45241;49.768;8.636;2023-04-20T11:24:19;4.55;;;3.00;;
59434;SDS011;45241;49.768;8.636;2023-04-20T11:26:45;4.05;;;3.47;;
59434;SDS011;45241;49.768;8.636;2023-04-20T11:29:25;4.45;;;3.40;;
59434;SDS011;45241;49.768;8.636;2023-04-20T11:31:54;4.25;;;3.35;;
59434;SDS011;45241;49.768;8.636;2023-04-20T11:34:20;5.30;;;3.30;;
59434;SDS011;45241;49.768;8.636;2023-04-20T11:36:46;3.97;;;3.03;;
59434;SDS011;45241;49.768;8.636;2023-04-20T11:39:12;6.10;;;3.58;;
59434;SDS011;45241;49.768;8.636;2023-04-20T11:41:38;3.78;;;3.20;;
59434;SDS011;45241;49.768;8.636;2023-04-20T11:44:04;5.88;;;3.53;;
59434;SDS011;45241;49.768;8.636;2023-04-20T11:46:32;4.93;;;3.17;;
59434;SDS011;45241;49.768;8.636;2023-04-20T11:48:59;4.25;;;3.58;;
59434;SDS011;45241;49.768;8.636;2023-04-20T11:51:24;4.47;;;3.38;;
59434;SDS011;45241;49.768;8.636;2023-04-20T11:53:51;5.60;;;3.90;;
59434;SDS011;45241;49.768;8.636;2023-04-20T11:56:16;6.18;;;3.67;;
59434;SDS011;45241;49.768;8.636;2023-04-20T11:58:42;4.65;;;3.22;;
59434;SDS011;45241;49.768;8.636;2023-04-20T12:01:07;4.45;;;3.40;;
59434;SDS011;45241;49.768;8.636;2023-04-20T12:03:33;4.30;;;3.20;;
59434;SDS011;45241;49.768;8.636;2023-04-20T12:05:58;4.93;;;3.40;;
59434;SDS011;45241;49.768;8.636;2023-04-20T12:08:23;4.95;;;3.28;;
59434;SDS011;45241;49.768;8.636;2023-04-20T12:10:49;5.13;;;3.13;;
59434;SDS011;45241;49.768;8.636;2023-04-20T12:13:14;5.75;;;3.85;;
59434;SDS011;45241;49.768;8.636;2023-04-20T12:15:40;4.28;;;3.42;;
59434;SDS011;45241;49.768;8.636;2023-04-20T12:18:05;6.57;;;3.70;;
59434;SDS011;45241;49.768;8.636;2023-04-20T12:20:30;5.28;;;3.80;;
59434;SDS011;45241;49.768;8.636;2023-04-20T12:22:56;3.92;;;3.25;;
59434;SDS011;45241;49.768;8.636;2023-04-20T12:25:21;3.20;;;2.90;;
59434;SDS011;45241;49.768;8.636;2023-04-20T12:27:46;4.47;;;3.28;;
59434;SDS011;45241;49.768;8.636;2023-04-20T12:30:12;5.85;;;3.58;;
59434;SDS011;45241;49.768;8.636;2023-04-20T12:32:38;5.25;;;3.47;;
59434;SDS011;45241;49.768;8.636;2023-04-20T12:35:03;3.42;;;2.58;;
59434;SDS011;45241;49.768;8.636;2023-04-20T12:37:29;4.20;;;2.45;;
59434;SDS011;45241;49.768;8.636;2023-04-20T12:39:56;3.75;;;2.75;;
59434;SDS011;45241;49.768;8.636;2023-04-20T12:42:21;4.25;;;3.00;;
59434;SDS011;45241;49.768;8.636;2023-04-20T12:44:47;3.90;;;3.00;;
59434;SDS011;45241;49.768;8.636;2023-04-20T12:47:12;4.30;;;3.20;;
59434;SDS011;45241;49.768;8.636;2023-04-20T12:49:37;4.05;;;3.00;;
59434;SDS011;45241;49.768;8.636;2023-04-20T12:52:03;5.82;;;3.47;;
59434;SDS011;45241;49.768;8.636;2023-04-20T12:54:28;3.70;;;3.13;;
59434;SDS011;45241;49.768;8.636;2023-04-20T12:56:53;3.40;;;3.08;;
59434;SDS011;45241;49.768;8.636;2023-04-20T12:59:19;6.18;;;3.50;;
59434;SDS011;45241;49.768;8.636;2023-04-20T13:01:44;5.50;;;3.50;;
59434;SDS011;45241;49.768;8.636;2023-04-20T13:04:10;4.60;;;3.47;;
59434;SDS011;45241;49.768;8.636;2023-04-20T13:06:35;3.67;;;2.83;;
59434;SDS011;45241;49.768;8.636;2023-04-20T13:09:00;4.68;;;2.85;;
59434;SDS011;45241;49.768;8.636;2023-04-20T13:11:28;3.50;;;2.20;;
59434;SDS011;45241;49.768;8.636;2023-04-20T13:13:54;5.95;;;2.60;;
59434;SDS011;45241;49.768;8.636;2023-04-20T13:16:21;4.07;;;2.47;;
59434;SDS011;45241;49.768;8.636;2023-04-20T13:18:47;3.38;;;2.17;;
59434;SDS011;45241;49.768;8.636;2023-04-20T13:21:12;3.90;;;2.55;;
59434;SDS011;45241;49.768;8.636;2023-04-20T13:23:38;3.83;;;2.58;;
59434;SDS011;45241;49.768;8.636;2023-04-20T13:26:04;4.97;;;2.67;;
59434;SDS011;45241;49.768;8.636;2023-04-20T13:28:31;3.70;;;2.40;;
59434;SDS011;45241;49.768;8.636;2023-04-20T13:30:56;4.75;;;3.17;;
59434;SDS011;45241;49.768;8.636;2023-04-20T13:33:22;4.72;;;2.92;;
59434;SDS011;45241;49.768;8.636;2023-04-20T13:35:47;4.72;;;3.10;;
59434;SDS011;45241;49.768;8.636;2023-04-20T13:38:12;3.88;;;2.70;;
59434;SDS011;45241;49.768;8.636;2023-04-20T13:40:38;4.22;;;3.10;;
59434;SDS011;45241;49.768;8.636;2023-04-20T13:43:03;4.25;;;3.10;;
59434;SDS011;45241;49.768;8.636;2023-04-20T13:45:28;4.35;;;3.45;;
59434;SDS011;45241;49.768;8.636;2023-04-20T13:47:54;4.65;;;3.35;;
59434;SDS011;45241;49.768;8.636;2023-04-20T13:50:20;5.00;;;3.33;;
59434;SDS011;45241;49.768;8.636;2023-04-20T13:52:45;8.23;;;3.47;;
59434;SDS011;45241;49.768;8.636;2023-04-20T13:55:10;5.55;;;3.50;;
59434;SDS011;45241;49.768;8.636;2023-04-20T13:57:36;5.32;;;3.22;;
59434;SDS011;45241;49.768;8.636;2023-04-20T14:00:01;4.85;;;3.60;;
59434;SDS011;45241;49.768;8.636;2023-04-20T14:02:28;5.03;;;3.53;;
59434;SDS011;45241;49.768;8.636;2023-04-20T14:04:53;4.63;;;3.40;;
59434;SDS011;45241;49.768;8.636;2023-04-20T14:07:20;4.70;;;3.20;;
59434;SDS011;45241;49.768;8.636;2023-04-20T14:09:45;6.00;;;3.72;;
59434;SDS011;45241;49.768;8.636;2023-04-20T14:12:11;6.05;;;3.22;;
59434;SDS011;45241;49.768;8.636;2023-04-20T14:14:37;5.50;;;2.85;;
59434;SDS011;45241;49.768;8.636;2023-04-20T14:17:03;4.20;;;3.10;;
59434;SDS011;45241;49.768;8.636;2023-04-20T14:19:29;4.03;;;2.70;;
59434;SDS011;45241;49.768;8.636;2023-04-20T14:21:55;3.67;;;2.90;;
59434;SDS011;45241;49.768;8.636;2023-04-20T14:24:20;4.95;;;2.80;;
59434;SDS011;45241;49.768;8.636;2023-04-20T14:26:45;4.85;;;3.25;;
59434;SDS011;45241;49.768;8.636;2023-04-20T14:29:11;5.30;;;3.22;;
59434;SDS011;45241;49.768;8.636;2023-04-20T14:31:36;4.40;;;3.25;;
59434;SDS011;45241;49.768;8.636;2023-04-20T14:34:01;5.72;;;3.35;;
59434;SDS011;45241;49.768;8.636;2023-04-20T14:36:27;4.10;;;3.50;;
59434;SDS011;45241;49.768;8.636;2023-04-20T14:38:52;5.05;;;3.60;;
59434;SDS011;45241;49.768;8.636;2023-04-20T14:41:20;5.13;;;3.35;;
59434;SDS011;45241;49.768;8.636;2023-04-20T14:43:46;4.45;;;3.10;;
59434;SDS011;45241;49.768;8.636;2023-04-20T14:46:11;5.60;;;3.20;;
59434;SDS011;45241;49.768;8.636;2023-04-20T14:48:36;5.28;;;3.47;;
59434;SDS011;45241;49.768;8.636;2023-04-20T14:51:02;5.38;;;3.33;;
59434;SDS011;45241;49.768;8.636;2023-04-20T14:53:28;4.57;;;3.20;;